Time;durP1;ratioP1;P1;durP2;ratioP2;P2;SDS_P1;SDS_P2;PMS_P1;PMS_P2;Temp;Humidity;BMP_temperature;BMP_pressure;BME280_temperature;BME280_humidity;BME280_pressure;Samples;Min_cycle;Max_cycle;Signal;HPM_P1;HPM_P2
2022/06/20 00:02:23;;;;;;;15.50;14.30;;;23.50;12.70;;;;;;5092682;28;20181;-67
2022/06/20 00:04:51;;;;;;;14.87;13.77;;;23.50;13.00;;;;;;5091579;28;20883;-66
2022/06/20 00:07:17;;;;;;;15.67;14.57;;;23.50;13.80;;;;;;5092668;28;20412;-67
2022/06/20 00:09:42;;;;;;;14.80;13.40;;;23.30;14.30;;;;;;5090858;28;20444;-67
2022/06/20 00:12:14;;;;;;;15.93;14.70;;;23.40;13.90;;;;;;5092777;28;20403;-67
2022/06/20 00:14:39;;;;;;;14.87;13.77;;;23.40;13.70;;;;;;5091288;28;20204;-67
2022/06/20 00:17:10;;;;;;;15.27;14.37;;;23.40;13.70;;;;;;5091453;28;20412;-66
2022/06/20 00:19:36;;;;;;;14.27;13.37;;;23.40;13.90;;;;;;5092609;28;20189;-66
2022/06/20 00:22:01;;;;;;;14.90;13.63;;;23.40;13.90;;;;;;5092650;28;20418;-67
2022/06/20 00:24:29;;;;;;;15.90;14.60;;;23.30;13.80;;;;;;5092779;28;20203;-67
2022/06/20 00:26:55;;;;;;;14.77;13.87;;;23.30;13.80;;;;;;5092389;28;20379;-67
2022/06/20 00:29:21;;;;;;;15.23;13.70;;;23.20;14.30;;;;;;5091909;28;20471;-67
2022/06/20 00:31:46;;;;;;;13.90;12.90;;;23.10;14.20;;;;;;5091433;28;20180;-67
2022/06/20 00:34:13;;;;;;;15.20;13.73;;;23.00;14.30;;;;;;5092399;28;20230;-67
2022/06/20 00:36:39;;;;;;;14.17;13.10;;;23.00;14.60;;;;;;5092147;28;20192;-67
2022/06/20 00:39:05;;;;;;;14.90;13.40;;;22.90;14.60;;;;;;5091673;28;20454;-67
2022/06/20 00:41:33;;;;;;;14.40;13.20;;;22.80;15.10;;;;;;5090652;28;20468;-66
2022/06/20 00:44:00;;;;;;;13.10;12.10;;;22.80;15.40;;;;;;5092023;28;20593;-67
2022/06/20 00:46:49;;;;;;;14.47;13.20;;;22.70;15.40;;;;;;5096166;28;20406;-67
2022/06/20 00:49:20;;;;;;;14.40;13.30;;;22.60;15.70;;;;;;5094309;28;20439;-67
2022/06/20 00:52:06;;;;;;;13.43;12.33;;;22.70;15.60;;;;;;5094879;28;20419;-67
2022/06/20 00:54:41;;;;;;;13.53;12.33;;;22.70;15.30;;;;;;5096382;28;20782;-66
2022/06/20 00:57:15;;;;;;;14.00;12.93;;;22.70;15.60;;;;;;5095051;28;20963;-66
2022/06/20 00:59:49;;;;;;;12.73;11.93;;;22.60;15.90;;;;;;5094948;28;20438;-66
2022/06/20 01:02:23;;;;;;;12.87;12.00;;;22.60;15.90;;;;;;5096110;28;20422;-66
2022/06/20 01:05:13;;;;;;;14.07;12.70;;;22.60;15.90;;;;;;5095942;28;20461;-67
2022/06/20 01:08:05;;;;;;;13.77;12.67;;;22.60;15.90;;;;;;5080381;28;20843;-65
2022/06/20 01:10:42;;;;;;;15.47;13.90;;;22.60;15.90;;;;;;5087546;28;20430;-67
2022/06/20 01:13:14;;;;;;;13.87;12.73;;;22.60;15.80;;;;;;5094419;28;20419;-67
2022/06/20 01:15:42;;;;;;;11.87;10.90;;;22.60;15.50;;;;;;5094495;28;20415;-68
2022/06/20 01:18:22;;;;;;;15.70;14.40;;;22.60;15.50;;;;;;5095251;28;20977;-68
2022/06/20 01:20:49;;;;;;;15.40;14.20;;;22.60;15.20;;;;;;5094485;28;20791;-69
2022/06/20 01:23:52;;;;;;;12.50;11.30;;;22.60;15.30;;;;;;5095392;28;20494;-68
2022/06/20 01:27:01;;;;;;;15.20;14.00;;;22.60;15.40;;;;;;5094290;28;20484;-68
2022/06/20 01:29:27;;;;;;;14.00;12.20;;;22.50;15.40;;;;;;5084171;28;20926;-67
2022/06/20 01:31:55;;;;;;;13.40;12.50;;;22.50;15.40;;;;;;5095311;28;20448;-68
2022/06/20 01:34:22;;;;;;;13.77;12.63;;;22.50;15.60;;;;;;5095478;28;20675;-67
2022/06/20 01:39:39;;;;;;;15.53;13.63;;;22.50;15.70;;;;;;5095563;28;20458;-68
2022/06/20 01:42:19;;;;;;;13.87;12.63;;;22.40;15.90;;;;;;5095299;28;20751;-68
2022/06/20 01:44:53;;;;;;;13.90;12.67;;;22.40;16.00;;;;;;5093685;28;20830;-69
2022/06/20 01:47:18;;;;;;;13.57;12.03;;;22.30;16.00;;;;;;5095042;28;20435;-68
2022/06/20 01:49:46;;;;;;;16.93;12.93;;;22.30;16.20;;;;;;5076435;28;20524;-68
2022/06/20 01:52:16;;;;;;;14.47;13.20;;;22.20;16.30;;;;;;5094909;28;20201;-69
2022/06/20 01:54:48;;;;;;;13.10;12.00;;;22.20;16.60;;;;;;5094712;28;20419;-67
2022/06/20 01:57:16;;;;;;;15.03;13.70;;;22.10;17.30;;;;;;5092129;28;20427;-66
2022/06/20 01:59:50;;;;;;;13.00;11.80;;;22.00;17.90;;;;;;5095649;28;20439;-68
2022/06/20 02:02:15;;;;;;;13.13;12.00;;;21.80;17.80;;;;;;5096343;28;20473;-68
2022/06/20 02:04:42;;;;;;;11.90;10.97;;;21.70;18.00;;;;;;5096073;28;20459;-68
2022/06/20 02:07:10;;;;;;;14.10;12.77;;;21.70;18.10;;;;;;5096887;28;20181;-69
2022/06/20 02:09:37;;;;;;;11.97;10.80;;;21.60;18.10;;;;;;5093084;28;20437;-69
2022/06/20 02:12:03;;;;;;;14.23;10.90;;;21.60;18.00;;;;;;5093341;28;20418;-67
2022/06/20 02:14:38;;;;;;;11.77;10.83;;;21.60;18.30;;;;;;5094500;28;20441;-69
2022/06/20 02:17:09;;;;;;;11.20;9.93;;;21.60;18.40;;;;;;5093206;28;20454;-68
2022/06/20 02:19:42;;;;;;;10.43;9.63;;;21.50;18.20;;;;;;5092613;28;20447;-68
2022/06/20 02:22:11;;;;;;;15.00;13.33;;;21.50;18.10;;;;;;5094535;28;20522;-67
2022/06/20 02:24:44;;;;;;;15.63;10.80;;;21.50;18.40;;;;;;5093258;28;20517;-68
2022/06/20 02:27:31;;;;;;;11.63;10.73;;;21.40;18.50;;;;;;5092950;28;20469;-67
2022/06/20 02:29:59;;;;;;;11.77;10.67;;;21.40;18.50;;;;;;5092743;28;20950;-68
2022/06/20 02:32:27;;;;;;;11.77;10.97;;;21.40;18.40;;;;;;5094176;28;20415;-68
2022/06/20 02:34:53;;;;;;;11.80;11.00;;;21.40;18.80;;;;;;5093226;28;20441;-66
2022/06/20 02:37:23;;;;;;;12.63;11.40;;;21.40;18.90;;;;;;5094616;28;20797;-68
2022/06/20 02:39:52;;;;;;;12.00;10.80;;;21.40;18.80;;;;;;5094127;28;20459;-67
2022/06/20 02:42:28;;;;;;;12.00;11.10;;;21.30;18.70;;;;;;5094061;28;20418;-67
2022/06/20 02:44:55;;;;;;;12.60;11.47;;;21.30;18.80;;;;;;5094505;28;20485;-68
2022/06/20 02:47:23;;;;;;;11.57;10.40;;;21.30;18.70;;;;;;5094388;28;20407;-69
2022/06/20 02:49:52;;;;;;;10.77;9.97;;;21.40;18.90;;;;;;5093855;28;20496;-68
2022/06/20 02:52:25;;;;;;;10.43;9.47;;;21.40;18.90;;;;;;5092712;28;20506;-68
2022/06/20 02:54:52;;;;;;;11.50;10.40;;;21.40;18.80;;;;;;5094153;28;20459;-68
2022/06/20 02:57:35;;;;;;;10.47;9.67;;;21.40;19.00;;;;;;5094389;28;20425;-66
2022/06/20 03:00:03;;;;;;;8.90;8.20;;;21.20;19.40;;;;;;5094079;28;20945;-68
2022/06/20 03:02:33;;;;;;;13.50;10.33;;;21.20;19.60;;;;;;5092254;28;20424;-67
2022/06/20 03:05:01;;;;;;;11.67;10.60;;;21.20;19.60;;;;;;5092893;28;20463;-67
2022/06/20 03:07:30;;;;;;;13.03;11.67;;;21.10;19.80;;;;;;5091732;28;20493;-67
2022/06/20 03:10:04;;;;;;;13.30;10.50;;;21.40;20.00;;;;;;5093281;28;20442;-66
2022/06/20 03:12:31;;;;;;;11.10;10.20;;;21.50;19.90;;;;;;5092126;28;20510;-66
2022/06/20 03:15:00;;;;;;;14.27;11.30;;;21.60;19.80;;;;;;5092345;28;20472;-67
2022/06/20 03:17:26;;;;;;;13.57;12.13;;;21.70;19.50;;;;;;5092748;28;20407;-66
2022/06/20 03:19:55;;;;;;;12.30;11.20;;;21.80;19.20;;;;;;5092865;28;20438;-67
2022/06/20 03:22:26;;;;;;;12.37;11.27;;;21.80;18.70;;;;;;5091745;28;20842;-66
2022/06/20 03:24:52;;;;;;;12.80;10.70;;;21.80;18.50;;;;;;5091756;28;20486;-67
2022/06/20 03:27:25;;;;;;;12.83;11.53;;;21.90;18.60;;;;;;5093090;28;20461;-68
2022/06/20 03:29:55;;;;;;;14.50;13.00;;;21.90;18.10;;;;;;5091441;28;20810;-67
2022/06/20 03:32:25;;;;;;;12.87;11.83;;;21.90;18.10;;;;;;5093549;28;20546;-66
2022/06/20 03:34:52;;;;;;;11.70;10.90;;;22.00;18.20;;;;;;5092959;28;20411;-67
2022/06/20 03:37:19;;;;;;;11.20;10.30;;;22.10;18.00;;;;;;5092829;28;20421;-65
2022/06/20 03:39:45;;;;;;;11.70;10.80;;;22.10;18.00;;;;;;5102635;22;20519;-68
2022/06/20 03:42:12;;;;;;;13.60;12.43;;;22.20;18.10;;;;;;5072781;28;20430;-67
2022/06/20 03:44:44;;;;;;;12.87;11.87;;;22.20;18.10;;;;;;5072899;28;20823;-67
2022/06/20 03:47:17;;;;;;;14.67;11.20;;;22.20;18.10;;;;;;5072684;28;20448;-67
2022/06/20 03:49:56;;;;;;;12.50;11.50;;;22.20;18.10;;;;;;5072267;28;20461;-67
2022/06/20 03:52:27;;;;;;;20.93;11.80;;;22.20;18.10;;;;;;5072746;28;20491;-67
2022/06/20 03:55:03;;;;;;;14.40;13.20;;;22.30;18.10;;;;;;5072827;28;20412;-69
2022/06/20 03:57:33;;;;;;;12.57;11.53;;;22.40;18.20;;;;;;5072796;28;20758;-68
2022/06/20 04:00:15;;;;;;;11.47;10.37;;;22.30;18.10;;;;;;5072317;28;20930;-67
2022/06/20 04:02:59;;;;;;;17.43;10.80;;;22.40;18.20;;;;;;5072549;28;20427;-68
2022/06/20 04:05:47;;;;;;;14.20;13.03;;;22.50;17.80;;;;;;5071202;28;20458;-70
2022/06/20 04:08:25;;;;;;;14.27;13.23;;;22.50;17.40;;;;;;5072245;28;20458;-68
2022/06/20 04:10:59;;;;;;;13.53;12.37;;;22.60;17.20;;;;;;5072381;28;20404;-68
2022/06/20 04:13:42;;;;;;;14.50;13.00;;;22.60;17.10;;;;;;5072530;28;20412;-68
2022/06/20 04:16:20;;;;;;;13.23;12.17;;;22.70;17.10;;;;;;5073163;28;20764;-68
2022/06/20 04:18:56;;;;;;;14.03;12.90;;;22.70;17.00;;;;;;5070208;28;20450;-68
2022/06/20 04:21:31;;;;;;;17.17;13.93;;;22.70;16.80;;;;;;5072567;28;20408;-68
2022/06/20 04:24:19;;;;;;;12.77;11.57;;;22.80;17.90;;;;;;5072080;28;20434;-68
2022/06/20 04:27:09;;;;;;;11.93;10.40;;;22.90;18.60;;;;;;5071973;28;20424;-68
2022/06/20 04:29:47;;;;;;;25.10;12.00;;;22.60;20.50;;;;;;5071616;28;20481;-68
2022/06/20 04:32:19;;;;;;;10.03;9.13;;;22.70;22.00;;;;;;5072177;28;20902;-68
2022/06/20 04:34:52;;;;;;;11.57;9.60;;;21.90;24.30;;;;;;5072067;28;20400;-68
2022/06/20 04:37:25;;;;;;;10.23;8.97;;;21.90;26.30;;;;;;5071951;28;20404;-68
2022/06/20 04:40:38;;;;;;;8.73;7.70;;;21.90;25.80;;;;;;5071438;28;20444;-67
2022/06/20 04:43:17;;;;;;;14.53;11.20;;;21.80;26.80;;;;;;5034611;28;20531;-67
2022/06/20 04:45:49;;;;;;;13.33;9.00;;;21.30;29.90;;;;;;5071699;28;20531;-68
2022/06/20 04:48:19;;;;;;;10.83;7.90;;;21.30;27.40;;;;;;5071618;28;20416;-69
2022/06/20 04:50:53;;;;;;;14.20;10.33;;;21.30;28.70;;;;;;5073261;28;20420;-69
2022/06/20 04:53:22;;;;;;;12.43;10.13;;;21.40;30.40;;;;;;5071684;28;20511;-67
2022/06/20 04:55:51;;;;;;;11.97;9.53;;;21.40;30.20;;;;;;5072175;28;20517;-67
2022/06/20 04:58:22;;;;;;;11.00;7.40;;;21.50;29.90;;;;;;5071707;28;20416;-68
2022/06/20 05:00:51;;;;;;;10.23;8.00;;;21.40;28.30;;;;;;5072440;28;20420;-67
2022/06/20 05:03:25;;;;;;;10.00;8.73;;;21.40;28.70;;;;;;5071753;28;20493;-67
2022/06/20 05:05:53;;;;;;;11.00;8.70;;;21.50;27.90;;;;;;5071766;28;20468;-67
2022/06/20 05:08:30;;;;;;;21.93;9.43;;;21.50;28.70;;;;;;5071508;28;20784;-67
2022/06/20 05:11:04;;;;;;;10.43;8.83;;;21.60;28.40;;;;;;5071639;28;20418;-67
2022/06/20 05:13:35;;;;;;;12.67;8.83;;;21.60;28.00;;;;;;5070347;28;20419;-68
2022/06/20 05:16:01;;;;;;;7.73;7.00;;;21.70;28.10;;;;;;5071544;28;20789;-68
2022/06/20 05:18:39;;;;;;;8.50;6.80;;;21.90;27.40;;;;;;5071188;28;20817;-67
2022/06/20 05:21:11;;;;;;;13.83;9.37;;;22.00;27.00;;;;;;5071578;28;20426;-68
2022/06/20 05:23:50;;;;;;;9.87;8.20;;;22.10;27.30;;;;;;5071685;28;20447;-72
2022/06/20 05:26:25;;;;;;;12.60;7.03;;;22.30;26.80;;;;;;5070606;28;20513;-69
2022/06/20 05:28:54;;;;;;;8.33;7.50;;;22.50;26.90;;;;;;5071565;28;20436;-69
2022/06/20 05:31:29;;;;;;;10.77;8.53;;;22.60;27.00;;;;;;5074198;28;20478;-70
2022/06/20 05:34:04;;;;;;;85.57;25.60;;;22.70;27.10;;;;;;5075841;28;20507;-68
2022/06/20 05:36:52;;;;;;;17.13;10.70;;;22.80;27.10;;;;;;5077731;28;20415;-69
2022/06/20 05:39:24;;;;;;;143.23;38.77;;;22.70;27.10;;;;;;5076725;28;20466;-70
2022/06/20 05:41:50;;;;;;;31.07;13.00;;;22.70;26.70;;;;;;5075868;28;20464;-71
2022/06/20 05:44:16;;;;;;;15.43;9.37;;;22.80;27.10;;;;;;5075176;28;20461;-70
2022/06/20 05:46:45;;;;;;;15.07;8.93;;;22.80;27.10;;;;;;5076158;28;20656;-69
2022/06/20 05:49:25;;;;;;;8.70;7.87;;;22.90;26.40;;;;;;5075470;28;20981;-69
2022/06/20 05:51:52;;;;;;;10.57;7.47;;;23.10;26.70;;;;;;5076537;28;20469;-69
2022/06/20 05:54:22;;;;;;;12.30;6.70;;;23.20;26.40;;;;;;5080116;28;20952;-71
2022/06/20 05:56:59;;;;;;;8.23;6.27;;;23.30;26.50;;;;;;5079341;28;20576;-70
2022/06/20 05:59:27;;;;;;;9.17;8.00;;;23.40;25.70;;;;;;5075574;28;20441;-69
2022/06/20 06:02:25;;;;;;;9.30;7.70;;;23.60;25.40;;;;;;5074929;28;20465;-70
2022/06/20 06:05:04;;;;;;;6.87;6.40;;;23.70;24.80;;;;;;5074104;28;20486;-70
2022/06/20 06:07:41;;;;;;;10.40;8.10;;;23.80;24.20;;;;;;5075571;28;20498;-70
2022/06/20 06:10:25;;;;;;;9.70;8.33;;;24.00;24.60;;;;;;5075361;28;20455;-70
2022/06/20 06:13:18;;;;;;;8.97;8.27;;;24.20;24.50;;;;;;5072931;28;20412;-70
2022/06/20 06:19:00;;;;;;;9.03;8.37;;;24.30;23.10;;;;;;5073833;28;20462;-70
2022/06/20 06:21:27;;;;;;;10.47;9.20;;;24.40;23.10;;;;;;5074234;28;20436;-69
2022/06/20 06:23:53;;;;;;;9.40;8.50;;;24.60;23.00;;;;;;5073965;28;20409;-71
2022/06/20 06:26:19;;;;;;;9.03;8.23;;;24.70;23.10;;;;;;5074266;28;21004;-70
2022/06/20 06:28:47;;;;;;;19.30;9.23;;;24.60;22.90;;;;;;5072987;28;20484;-70
2022/06/20 06:31:22;;;;;;;10.60;8.53;;;24.30;23.90;;;;;;5057546;28;20428;-69
2022/06/20 06:33:51;;;;;;;20.47;9.33;;;24.40;24.50;;;;;;5052488;28;20425;-69
2022/06/20 06:36:55;;;;;;;7.70;7.10;;;24.40;24.60;;;;;;5052379;28;20784;-69
2022/06/20 06:39:29;;;;;;;10.20;8.10;;;24.50;24.00;;;;;;5040763;28;20482;-69
2022/06/20 06:42:01;;;;;;;9.53;8.53;;;24.50;24.60;;;;;;5052911;28;20417;-69
2022/06/20 06:44:33;;;;;;;10.63;8.03;;;24.10;24.90;;;;;;5060891;28;20958;-69
2022/06/20 06:47:00;;;;;;;8.60;7.90;;;24.00;25.40;;;;;;5073437;28;20515;-68
2022/06/20 06:49:28;;;;;;;7.70;7.00;;;24.00;25.80;;;;;;5073287;28;20439;-68
2022/06/20 06:52:00;;;;;;;8.93;7.37;;;24.10;25.90;;;;;;5073483;28;20438;-69
2022/06/20 06:54:46;;;;;;;17.43;8.47;;;24.30;25.70;;;;;;5073290;28;20458;-69
2022/06/20 06:57:23;;;;;;;9.43;8.73;;;24.40;24.90;;;;;;5066698;28;20445;-69
2022/06/20 07:00:38;;;;;;;9.40;8.53;;;24.50;22.80;;;;;;5066274;28;20443;-68
2022/06/20 07:03:16;;;;;;;8.90;8.20;;;24.70;21.80;;;;;;5060579;28;20471;-70
2022/06/20 07:05:48;;;;;;;10.63;10.03;;;25.00;21.60;;;;;;5053375;28;20459;-68
2022/06/20 07:08:17;;;;;;;11.33;10.50;;;25.40;19.70;;;;;;5053079;28;20406;-68
2022/06/20 07:10:58;;;;;;;10.67;10.07;;;26.10;20.50;;;;;;5053478;28;20405;-69
2022/06/20 07:13:40;;;;;;;10.80;10.23;;;26.90;19.10;;;;;;5065031;28;20519;-71
2022/06/20 07:16:20;;;;;;;12.57;11.90;;;27.40;15.80;;;;;;5063345;28;20647;-69
2022/06/20 07:18:50;;;;;;;13.57;12.23;;;27.80;14.20;;;;;;5053340;28;20494;-69
2022/06/20 07:21:18;;;;;;;13.17;12.10;;;28.40;14.00;;;;;;5053703;28;20442;-69
2022/06/20 07:23:48;;;;;;;14.03;12.90;;;29.70;12.40;;;;;;5053215;28;20911;-69
2022/06/20 07:26:17;;;;;;;14.10;13.30;;;30.80;10.90;;;;;;5057935;28;20881;-69
2022/06/20 07:28:55;;;;;;;15.70;14.60;;;31.20;10.90;;;;;;5069269;28;20944;-68
2022/06/20 07:32:05;;;;;;;14.70;13.70;;;31.70;9.50;;;;;;5056475;28;20435;-68
2022/06/20 07:34:45;;;;;;;14.67;13.90;;;31.60;8.90;;;;;;5048016;28;20533;-68
2022/06/20 07:37:16;;;;;;;15.90;14.90;;;31.40;8.70;;;;;;5034042;28;20448;-68
2022/06/20 07:39:50;;;;;;;14.97;13.90;;;31.60;7.90;;;;;;5051274;28;20448;-69
2022/06/20 07:42:39;;;;;;;14.63;13.80;;;31.60;6.90;;;;;;5050034;28;20498;-69
2022/06/20 07:45:31;;;;;;;15.33;14.60;;;31.50;7.00;;;;;;5059827;28;20506;-69
2022/06/20 07:48:07;;;;;;;17.67;15.43;;;31.70;6.70;;;;;;5057544;28;20483;-68
2022/06/20 07:50:49;;;;;;;15.07;14.37;;;31.90;5.90;;;;;;5070468;28;20438;-69
2022/06/20 07:53:33;;;;;;;15.90;14.80;;;32.20;5.80;;;;;;5057370;28;20798;-69
2022/06/20 07:56:07;;;;;;;15.97;15.17;;;32.80;5.80;;;;;;5049637;28;20440;-68
2022/06/20 07:58:37;;;;;;;16.13;15.33;;;33.40;4.60;;;;;;5071808;28;20946;-68
2022/06/20 08:01:22;;;;;;;16.97;15.87;;;34.00;3.80;;;;;;5079367;28;20430;-68
2022/06/20 08:03:54;;;;;;;15.17;14.30;;;33.90;1.30;;;;;;5068150;28;20419;-68
2022/06/20 08:06:31;;;;;;;14.13;13.47;;;33.50;1.70;;;;;;5071909;28;20575;-68
2022/06/20 08:09:03;;;;;;;15.43;14.27;;;33.30;3.60;;;;;;5072589;28;21004;-68
2022/06/20 08:11:55;;;;;;;15.50;14.50;;;33.90;2.50;;;;;;5070942;28;20828;-68
2022/06/20 08:14:45;;;;;;;15.90;15.20;;;34.20;1.00;;;;;;5052406;28;20436;-68
2022/06/20 08:17:12;;;;;;;15.53;14.63;;;34.70;1.00;;;;;;5060382;28;20432;-68
2022/06/20 08:19:43;;;;;;;16.80;15.80;;;34.90;1.00;;;;;;5072318;28;20447;-68
2022/06/20 08:22:21;;;;;;;15.10;14.10;;;34.40;1.00;;;;;;5072086;28;20404;-68
2022/06/20 08:25:35;;;;;;;15.13;14.33;;;34.50;1.00;;;;;;5072427;28;20460;-68
2022/06/20 08:28:07;;;;;;;14.27;13.60;;;34.90;1.00;;;;;;5029522;28;20433;-68
2022/06/20 08:30:49;;;;;;;15.00;14.40;;;35.10;1.00;;;;;;5065395;28;20966;-68
2022/06/20 08:33:23;;;;;;;15.10;14.10;;;35.60;1.00;;;;;;5055288;28;20419;-68
2022/06/20 08:36:05;;;;;;;15.63;14.93;;;35.90;1.00;;;;;;5071765;28;20690;-68
2022/06/20 08:39:03;;;;;;;16.73;15.43;;;36.10;1.00;;;;;;5086623;28;20408;-68
2022/06/20 08:41:50;;;;;;;16.97;15.90;;;36.20;1.00;;;;;;5080990;28;20484;-68
2022/06/20 08:44:34;;;;;;;18.37;16.40;;;35.80;1.00;;;;;;5066906;28;20444;-68
2022/06/20 08:47:27;;;;;;;18.37;15.63;;;36.00;1.00;;;;;;5053125;28;20432;-67
2022/06/20 08:50:35;;;;;;;15.77;14.90;;;35.70;1.00;;;;;;5051425;28;20470;-68
2022/06/20 08:53:19;;;;;;;16.50;15.70;;;35.00;1.00;;;;;;5051717;28;20400;-67
2022/06/20 08:56:01;;;;;;;15.40;14.80;;;34.80;1.00;;;;;;5051787;28;20454;-67
2022/06/20 08:58:40;;;;;;;17.00;16.20;;;34.70;1.00;;;;;;5057601;28;20809;-67
2022/06/20 09:01:17;;;;;;;17.43;16.30;;;34.40;1.00;;;;;;5071437;28;20418;-67
2022/06/20 09:04:17;;;;;;;16.17;15.37;;;34.00;1.00;;;;;;5058718;28;20503;-67
2022/06/20 09:06:54;;;;;;;17.13;16.00;;;33.80;1.00;;;;;;5055002;28;20509;-67
2022/06/20 09:09:43;;;;;;;17.40;16.60;;;33.30;1.00;;;;;;5055466;28;20429;-67
2022/06/20 09:12:41;;;;;;;16.87;15.97;;;32.90;1.00;;;;;;5055526;28;20400;-67
2022/06/20 09:15:46;;;;;;;16.03;15.33;;;32.30;1.00;;;;;;5055687;28;20500;-67
2022/06/20 09:18:29;;;;;;;17.57;15.90;;;31.90;1.00;;;;;;5075242;28;20407;-67
2022/06/20 09:21:08;;;;;;;18.37;16.43;;;31.50;1.00;;;;;;5075174;28;20411;-67
2022/06/20 09:24:02;;;;;;;16.03;15.23;;;31.10;1.00;;;;;;5074059;28;20434;-69
2022/06/20 09:26:37;;;;;;;16.20;15.23;;;30.90;1.20;;;;;;5075718;28;20463;-67
2022/06/20 09:29:09;;;;;;;16.90;15.70;;;30.70;1.50;;;;;;5073494;28;20443;-68
2022/06/20 09:31:50;;;;;;;18.00;16.50;;;30.60;1.60;;;;;;5074380;28;20420;-68
2022/06/20 09:34:44;;;;;;;15.63;14.83;;;30.60;1.10;;;;;;5075030;28;20408;-68
2022/06/20 09:37:22;;;;;;;15.50;14.70;;;30.50;1.40;;;;;;5078548;28;20411;-67
2022/06/20 09:40:07;;;;;;;17.27;15.90;;;30.40;1.40;;;;;;5076143;28;20449;-69
2022/06/20 09:43:00;;;;;;;16.00;15.20;;;30.40;2.10;;;;;;5054892;28;20503;-69
2022/06/20 09:45:44;;;;;;;16.50;15.40;;;30.30;2.30;;;;;;5067983;28;20785;-69
2022/06/20 09:48:49;;;;;;;16.43;15.30;;;30.30;2.10;;;;;;5074048;28;20436;-69
2022/06/20 09:51:25;;;;;;;15.93;15.03;;;30.20;3.30;;;;;;5071674;28;20432;-68
2022/06/20 09:54:21;;;;;;;17.27;16.07;;;30.20;2.80;;;;;;5054362;28;20409;-69
2022/06/20 09:57:27;;;;;;;15.57;14.77;;;30.20;2.30;;;;;;5054509;28;20412;-68
2022/06/20 10:00:21;;;;;;;17.27;16.30;;;30.20;1.80;;;;;;5064649;28;20518;-69
2022/06/20 10:02:59;;;;;;;15.00;14.40;;;30.10;2.20;;;;;;5074377;28;20907;-68
2022/06/20 10:05:43;;;;;;;16.37;15.40;;;30.10;2.60;;;;;;5074024;28;20517;-69
2022/06/20 10:08:34;;;;;;;16.50;15.73;;;30.20;2.30;;;;;;5058899;28;20504;-71
2022/06/20 10:11:11;;;;;;;17.10;16.30;;;30.40;2.60;;;;;;5053820;28;20463;-68
2022/06/20 10:13:52;;;;;;;16.40;15.33;;;30.60;2.20;;;;;;5053063;28;20434;-68
2022/06/20 10:16:21;;;;;;;18.00;16.70;;;30.80;1.70;;;;;;5052497;28;20756;-69
2022/06/20 10:19:08;;;;;;;17.33;16.43;;;31.00;1.40;;;;;;5052729;28;20433;-68
2022/06/20 10:21:36;;;;;;;16.77;16.07;;;31.20;1.00;;;;;;5053605;28;20412;-68
2022/06/20 10:24:20;;;;;;;17.27;16.37;;;31.60;1.00;;;;;;5053787;28;20417;-68
2022/06/20 10:26:59;;;;;;;17.70;16.63;;;32.00;1.00;;;;;;5053732;28;20443;-68
2022/06/20 10:29:37;;;;;;;17.00;16.10;;;32.30;1.00;;;;;;5053382;28;20749;-68
2022/06/20 10:32:19;;;;;;;18.37;16.97;;;31.70;1.00;;;;;;5053858;28;20405;-68
2022/06/20 10:34:59;;;;;;;18.37;17.07;;;31.40;1.00;;;;;;5053866;28;20398;-68
2022/06/20 10:37:37;;;;;;;16.77;15.97;;;31.40;1.00;;;;;;5053609;28;20413;-68
2022/06/20 10:40:11;;;;;;;17.80;16.90;;;31.20;1.00;;;;;;5053131;28;20456;-68
2022/06/20 10:43:07;;;;;;;16.60;15.60;;;31.40;1.00;;;;;;5053657;28;20923;-68
2022/06/20 10:45:35;;;;;;;16.80;15.70;;;31.50;1.00;;;;;;5053520;28;20457;-68
2022/06/20 10:48:09;;;;;;;17.00;16.20;;;31.70;1.00;;;;;;5053150;28;20413;-68
2022/06/20 10:50:53;;;;;;;16.43;15.63;;;31.90;1.00;;;;;;5053311;28;20425;-68
2022/06/20 10:54:00;;;;;;;17.40;16.30;;;32.10;1.00;;;;;;5053333;28;20409;-68
2022/06/20 10:56:47;;;;;;;17.93;16.50;;;31.90;1.00;;;;;;5050038;28;20448;-67
2022/06/20 10:59:54;;;;;;;16.23;15.23;;;31.90;1.00;;;;;;5052937;28;20466;-68
2022/06/20 11:02:28;;;;;;;14.83;14.20;;;31.80;1.00;;;;;;5053306;28;20499;-68
2022/06/20 11:05:22;;;;;;;15.90;15.10;;;31.00;1.00;;;;;;5053218;28;20459;-67
2022/06/20 11:08:04;;;;;;;16.30;15.03;;;31.50;1.00;;;;;;5053122;28;20911;-69
2022/06/20 11:10:47;;;;;;;17.10;16.10;;;31.60;1.00;;;;;;5052997;28;20421;-69
2022/06/20 11:13:17;;;;;;;17.63;15.83;;;31.90;1.00;;;;;;5053088;28;20420;-69
2022/06/20 11:16:02;;;;;;;17.10;16.10;;;32.00;1.00;;;;;;5053106;28;20420;-69
2022/06/20 11:18:45;;;;;;;16.10;15.03;;;32.00;1.00;;;;;;5052691;28;20496;-69
2022/06/20 11:21:48;;;;;;;15.63;14.93;;;32.20;1.00;;;;;;5052866;28;20419;-70
2022/06/20 11:24:20;;;;;;;17.03;15.90;;;32.50;1.00;;;;;;5052814;28;20412;-67
2022/06/20 11:27:07;;;;;;;16.00;15.10;;;32.50;1.00;;;;;;5052917;28;20432;-66
2022/06/20 11:29:42;;;;;;;16.10;15.10;;;32.50;1.00;;;;;;5051970;28;20494;-68
2022/06/20 11:32:47;;;;;;;16.50;15.70;;;32.80;1.00;;;;;;5052711;28;20428;-67
2022/06/20 11:35:41;;;;;;;15.00;14.30;;;32.80;1.00;;;;;;5052593;28;20421;-68
2022/06/20 11:38:27;;;;;;;15.40;14.57;;;32.90;1.00;;;;;;5052319;28;20417;-68
2022/06/20 11:41:10;;;;;;;15.90;15.20;;;33.00;1.00;;;;;;5052665;28;20431;-68
2022/06/20 11:44:08;;;;;;;17.93;16.47;;;33.20;1.00;;;;;;5052591;28;20405;-68
2022/06/20 11:46:59;;;;;;;14.93;14.30;;;33.20;1.00;;;;;;5052414;28;20998;-68
2022/06/20 11:49:51;;;;;;;15.07;14.37;;;33.00;1.00;;;;;;5051931;28;20928;-71
2022/06/20 11:53:09;;;;;;;16.57;15.77;;;32.90;1.00;;;;;;5052132;28;20404;-68
2022/06/20 11:55:58;;;;;;;16.73;15.37;;;32.80;1.00;;;;;;5029077;28;20429;-68
2022/06/20 11:59:02;;;;;;;16.80;15.90;;;32.80;1.00;;;;;;5052012;28;20500;-69
2022/06/20 12:01:36;;;;;;;16.73;15.83;;;32.40;1.00;;;;;;5048544;28;20911;-67
2022/06/20 12:04:16;;;;;;;16.07;15.17;;;31.90;1.00;;;;;;5050890;28;20428;-67
2022/06/20 12:06:47;;;;;;;15.77;14.87;;;32.00;1.00;;;;;;5050906;28;20476;-67
2022/06/20 12:09:44;;;;;;;16.43;15.63;;;32.00;1.00;;;;;;5051599;28;20437;-67
2022/06/20 12:12:28;;;;;;;16.43;15.73;;;32.30;1.00;;;;;;5052039;28;20540;-67
2022/06/20 12:15:30;;;;;;;16.67;15.60;;;32.50;1.00;;;;;;5051998;28;20413;-67
2022/06/20 12:18:15;;;;;;;16.00;15.30;;;32.20;1.00;;;;;;5051799;28;20500;-67
2022/06/20 12:23:41;;;;;;;16.20;15.40;;;31.00;1.00;;;;;;5051815;28;20459;-67
2022/06/20 12:26:23;;;;;;;15.90;15.20;;;31.20;1.00;;;;;;5051664;28;20448;-68
2022/06/20 12:28:51;;;;;;;16.33;15.27;;;30.30;1.00;;;;;;5051520;28;20497;-67
2022/06/20 12:31:19;;;;;;;15.73;14.87;;;29.30;2.20;;;;;;5051732;28;20839;-67
2022/06/20 12:33:59;;;;;;;15.80;14.90;;;28.50;3.50;;;;;;5051782;28;20448;-67
2022/06/20 12:36:39;;;;;;;15.37;14.10;;;27.60;4.50;;;;;;5052195;28;20411;-67
2022/06/20 12:39:11;;;;;;;15.07;14.37;;;27.40;5.30;;;;;;5052043;28;20459;-67
2022/06/20 12:41:41;;;;;;;15.87;14.80;;;27.40;5.50;;;;;;5051092;28;20421;-67
2022/06/20 12:44:22;;;;;;;15.50;14.80;;;27.20;6.00;;;;;;5051733;28;20409;-67
2022/06/20 12:47:18;;;;;;;15.17;14.53;;;27.40;6.30;;;;;;5051532;28;20470;-67
2022/06/20 12:50:23;;;;;;;14.90;14.10;;;27.40;6.70;;;;;;5051328;28;20856;-67
2022/06/20 12:53:21;;;;;;;14.13;13.53;;;27.20;6.50;;;;;;5051563;28;20912;-67
2022/06/20 12:56:06;;;;;;;15.20;14.23;;;27.50;6.60;;;;;;5051586;28;20493;-68
2022/06/20 12:58:40;;;;;;;13.97;13.37;;;27.70;5.60;;;;;;5051190;28;20428;-68
2022/06/20 13:01:42;;;;;;;15.30;14.13;;;27.10;6.20;;;;;;5051433;28;20448;-68
2022/06/20 13:04:56;;;;;;;14.37;13.67;;;27.20;6.40;;;;;;5051491;28;20397;-68
2022/06/20 13:07:35;;;;;;;13.80;13.20;;;26.80;6.80;;;;;;5051382;28;20416;-68
2022/06/20 13:10:30;;;;;;;14.20;13.60;;;27.10;6.60;;;;;;5050927;28;20420;-68
2022/06/20 13:13:26;;;;;;;13.67;12.93;;;26.90;6.80;;;;;;5051417;28;20409;-68
2022/06/20 13:16:12;;;;;;;14.73;13.80;;;26.90;6.70;;;;;;5051329;28;20417;-68
2022/06/20 13:18:56;;;;;;;14.70;13.70;;;26.60;6.90;;;;;;5049596;28;20424;-68
2022/06/20 13:21:46;;;;;;;13.70;13.10;;;27.10;6.30;;;;;;5051242;28;20405;-69
2022/06/20 13:24:43;;;;;;;13.60;13.00;;;27.60;6.30;;;;;;5051300;28;20440;-68
2022/06/20 13:27:43;;;;;;;15.03;14.03;;;27.60;6.40;;;;;;5051438;28;20429;-68
2022/06/20 13:30:21;;;;;;;14.70;13.30;;;27.80;6.20;;;;;;5050744;28;20519;-68
2022/06/20 13:33:16;;;;;;;14.27;13.33;;;27.20;7.10;;;;;;5051496;28;20400;-69
2022/06/20 13:35:52;;;;;;;13.87;13.33;;;27.20;7.20;;;;;;5051388;28;20775;-70
2022/06/20 13:38:21;;;;;;;14.33;13.43;;;26.80;7.30;;;;;;5051080;28;20791;-70
2022/06/20 13:41:01;;;;;;;14.37;13.57;;;26.40;8.00;;;;;;5051187;28;20424;-69